createdAt,value
2022-10-11T00:00:45.790Z,87.51
2022-10-11T00:01:45.724Z,87.20
2022-10-11T00:02:45.663Z,87.10
2022-10-11T00:03:45.561Z,87.10
2022-10-11T00:04:45.508Z,86.99
2022-10-11T00:05:45.434Z,87.30
2022-10-11T00:06:45.391Z,87.30
2022-10-11T00:07:45.301Z,87.34
2022-10-11T00:08:45.252Z,87.55
2022-10-11T00:09:45.183Z,87.65
2022-10-11T00:10:45.123Z,87.65
2022-10-11T00:11:45.050Z,87.96
2022-10-11T00:12:45.009Z,88.17
2022-10-11T00:13:44.933Z,88.27
2022-10-11T00:14:44.871Z,88.17
2022-10-11T00:15:44.830Z,88.31
2022-10-11T00:16:44.742Z,88.41
2022-10-11T00:17:44.674Z,88.62
2022-10-11T00:18:44.619Z,88.62
2022-10-11T00:19:44.563Z,88.82
2022-10-11T00:20:44.511Z,88.92
2022-10-11T00:21:44.423Z,88.41
2022-10-11T00:22:44.383Z,88.21
2022-10-11T00:23:44.298Z,88.31
2022-10-11T00:24:44.218Z,88.21
2022-10-11T00:25:44.195Z,88.31
2022-10-11T00:26:47.144Z,88.51
2022-10-11T00:27:44.038Z,88.62
2022-10-11T00:28:44.053Z,88.82
2022-10-11T00:29:43.945Z,88.82
2022-10-11T00:30:43.850Z,88.96
2022-10-11T00:31:43.818Z,88.96
2022-10-11T00:32:43.737Z,89.27
2022-10-11T00:33:43.661Z,89.48
2022-10-11T00:34:43.615Z,89.69
2022-10-11T00:35:43.528Z,89.78
2022-10-11T00:36:43.505Z,89.69
2022-10-11T00:37:43.401Z,89.78
2022-10-11T00:38:43.336Z,89.69
2022-10-11T00:39:43.286Z,90.03
2022-10-11T00:40:44.204Z,90.14
2022-10-11T00:41:43.152Z,90.24
2022-10-11T00:42:43.108Z,90.24
2022-10-11T00:43:43.010Z,90.14
2022-10-11T00:44:45.279Z,90.03
2022-10-11T00:45:42.874Z,90.03
2022-10-11T00:46:42.821Z,90.03
2022-10-11T00:47:43.696Z,90.24
2022-10-11T00:48:42.692Z,90.44
2022-10-11T00:49:42.628Z,90.65
2022-10-11T00:50:42.606Z,90.75
2022-10-11T00:51:42.541Z,90.85
2022-10-11T00:52:42.443Z,90.85
2022-10-11T00:53:42.376Z,90.95
2022-10-11T00:54:42.355Z,90.95
2022-10-11T00:55:42.262Z,90.95
2022-10-11T00:56:42.191Z,90.55
2022-10-11T00:57:42.168Z,90.55
2022-10-11T00:58:42.054Z,90.44
2022-10-11T00:59:41.978Z,90.44
2022-10-11T01:00:41.938Z,90.34
2022-10-11T01:01:41.940Z,90.55
2022-10-11T01:02:43.033Z,90.75
2022-10-11T01:03:41.749Z,90.69
2022-10-11T01:04:41.655Z,90.69
2022-10-11T01:05:41.606Z,90.48
2022-10-11T01:06:41.557Z,90.48
2022-10-11T01:07:41.466Z,90.48
2022-10-11T01:08:41.424Z,90.59
2022-10-11T01:09:41.348Z,90.28
2022-10-11T01:10:41.285Z,90.38
2022-10-11T01:11:41.220Z,90.48
2022-10-11T01:12:41.171Z,90.28
2022-10-11T01:13:41.100Z,90.48
2022-10-11T01:14:41.033Z,90.28
2022-10-11T01:15:40.948Z,90.08
2022-10-11T01:16:40.899Z,90.08
2022-10-11T01:17:40.842Z,90.18
2022-10-11T01:18:40.756Z,90.28
2022-10-11T01:19:40.709Z,90.08
2022-10-11T01:20:40.643Z,90.08
2022-10-11T01:21:40.560Z,89.97
2022-10-11T01:22:40.518Z,89.97
2022-10-11T01:23:40.458Z,90.18
2022-10-11T01:24:40.389Z,90.18
2022-10-11T01:25:40.323Z,90.08
2022-10-11T01:26:40.329Z,90.18
2022-10-11T01:27:40.192Z,90.28
2022-10-11T01:28:40.413Z,90.08
2022-10-11T01:29:40.056Z,90.08
2022-10-11T01:30:39.996Z,90.08
2022-10-11T01:31:39.935Z,90.38
2022-10-11T01:32:39.889Z,90.59
2022-10-11T01:33:39.819Z,90.73
2022-10-11T01:34:39.730Z,90.73
2022-10-11T01:35:39.688Z,90.63
2022-10-11T01:36:39.614Z,90.48
2022-10-11T01:37:39.559Z,90.42
2022-10-11T01:38:39.503Z,90.42
2022-10-11T01:39:39.422Z,90.73
2022-10-11T01:40:39.362Z,91.04
2022-10-11T01:41:39.283Z,91.14
2022-10-11T01:42:39.229Z,91.45
2022-10-11T01:43:39.166Z,91.45
2022-10-11T01:44:41.516Z,91.25
2022-10-11T01:45:39.047Z,91.25
2022-10-11T01:46:38.978Z,91.35
2022-10-11T01:47:38.945Z,91.25
2022-10-11T01:48:38.849Z,91.55
2022-10-11T01:49:38.770Z,91.91
2022-10-11T01:50:38.724Z,91.86
2022-10-11T01:51:38.653Z,91.80
2022-10-11T01:52:38.593Z,91.66
2022-10-11T01:53:38.535Z,91.66
2022-10-11T01:55:07.551Z,91.60
2022-10-11T01:55:38.394Z,91.39
2022-10-11T01:56:38.367Z,91.49
2022-10-11T01:57:38.274Z,91.70
2022-10-11T01:58:38.194Z,92.11
2022-10-11T01:59:38.145Z,92.11
2022-10-11T02:00:38.081Z,92.21
2022-10-11T02:01:38.039Z,92.11
2022-10-11T02:02:38.765Z,92.11
2022-10-11T02:03:37.889Z,92.21
2022-10-11T02:04:37.840Z,92.01
2022-10-11T02:05:37.758Z,92.01
2022-10-11T02:06:37.690Z,92.01
2022-10-11T02:07:37.631Z,92.11
2022-10-11T02:08:39.117Z,92.32
2022-10-11T02:09:37.503Z,92.63
2022-10-11T02:10:37.435Z,92.52
2022-10-11T02:11:37.360Z,92.42
2022-10-11T02:12:37.312Z,92.32
2022-10-11T02:13:37.243Z,92.42
2022-10-11T02:14:37.171Z,92.63
2022-10-11T02:15:37.103Z,92.77
2022-10-11T02:16:37.040Z,92.57
2022-10-11T02:17:37.011Z,92.67
2022-10-11T02:18:36.919Z,92.73
2022-10-11T02:19:36.882Z,92.57
2022-10-11T02:20:36.799Z,92.67
2022-10-11T02:21:36.736Z,92.67
2022-10-11T02:22:36.655Z,92.57
2022-10-11T02:23:36.586Z,92.57
2022-10-11T02:24:36.542Z,92.77
2022-10-11T02:25:36.469Z,92.67
2022-10-11T02:26:36.415Z,92.67
2022-10-11T02:27:36.343Z,93.08
2022-10-11T02:28:36.352Z,92.97
2022-10-11T02:29:36.232Z,92.87
2022-10-11T02:30:36.157Z,92.67
2022-10-11T02:31:36.072Z,92.67
2022-10-11T02:32:37.139Z,93.08
2022-10-11T02:33:35.951Z,92.97
2022-10-11T02:34:35.897Z,92.71
2022-10-11T02:35:35.836Z,92.71
2022-10-11T02:36:35.758Z,93.02
2022-10-11T02:37:35.690Z,93.23
2022-10-11T02:38:35.660Z,93.02
2022-10-11T02:39:35.579Z,93.02
2022-10-11T02:40:35.524Z,93.23
2022-10-11T02:41:35.450Z,93.43
2022-10-11T02:42:35.367Z,93.74
2022-10-11T02:43:35.321Z,94.15
2022-10-11T02:44:35.262Z,94.05
2022-10-11T02:45:35.186Z,93.64
2022-10-11T02:46:35.112Z,93.95
2022-10-11T02:47:35.048Z,94.15
2022-10-11T02:48:34.989Z,94.15
2022-10-11T02:49:34.939Z,94.05
2022-10-11T02:50:36.092Z,94.05
2022-10-11T02:51:34.788Z,93.95
2022-10-11T02:52:34.732Z,93.74
2022-10-11T02:53:34.661Z,93.74
2022-10-11T02:54:34.600Z,93.54
2022-10-11T02:55:34.537Z,93.54
2022-10-11T02:56:35.247Z,93.79
2022-10-11T02:57:34.418Z,93.58
2022-10-11T02:58:34.363Z,93.37
2022-10-11T02:59:34.275Z,93.37
2022-10-11T03:00:34.222Z,93.37
2022-10-11T03:01:34.246Z,93.58
2022-10-11T03:02:34.102Z,93.68
2022-10-11T03:03:34.069Z,93.79
2022-10-11T03:04:33.977Z,93.93
2022-10-11T03:05:33.896Z,94.03
2022-10-11T03:06:33.824Z,94.24
2022-10-11T03:07:33.789Z,94.34
2022-10-11T03:08:34.507Z,94.45
2022-10-11T03:09:33.662Z,94.59
2022-10-11T03:10:33.575Z,94.70
2022-10-11T03:11:33.502Z,94.90
2022-10-11T03:12:33.456Z,95.10
2022-10-11T03:13:33.389Z,95.31
2022-10-11T03:14:34.137Z,95.42
2022-10-11T03:15:33.270Z,95.31
2022-10-11T03:16:33.181Z,95.42
2022-10-11T03:17:37.317Z,95.42
2022-10-11T03:18:33.099Z,95.52
2022-10-11T03:19:34.496Z,95.42
2022-10-11T03:20:32.973Z,95.42
2022-10-11T03:21:32.878Z,95.31
2022-10-11T03:22:32.811Z,95.42
2022-10-11T03:23:32.746Z,95.31
2022-10-11T03:24:32.672Z,95.42
2022-10-11T03:25:32.621Z,95.52
2022-10-11T03:26:33.325Z,95.52
2022-10-11T03:27:32.489Z,95.62
2022-10-11T03:28:32.515Z,95.93
2022-10-11T03:29:32.353Z,95.93
2022-10-11T03:30:32.295Z,95.73
2022-10-11T03:31:32.232Z,95.73
2022-10-11T03:32:33.717Z,95.83
2022-10-11T03:33:32.093Z,95.83
2022-10-11T03:34:32.031Z,95.83
2022-10-11T03:35:31.965Z,95.83
2022-10-11T03:36:31.902Z,95.73
2022-10-11T03:37:31.845Z,95.52
2022-10-11T03:38:33.698Z,95.73
2022-10-11T03:39:31.717Z,95.73
2022-10-11T03:40:31.640Z,95.83
2022-10-11T03:41:31.588Z,95.93
2022-10-11T03:42:31.517Z,95.93
2022-10-11T03:43:31.465Z,95.93
2022-10-11T03:44:32.173Z,95.73
2022-10-11T03:45:31.340Z,95.62
2022-10-11T03:46:31.255Z,95.52
2022-10-11T03:47:31.207Z,95.52
2022-10-11T03:48:31.138Z,95.52
2022-10-11T03:49:31.074Z,95.42
2022-10-11T03:50:31.837Z,95.42
2022-10-11T03:51:30.944Z,95.31
2022-10-11T03:52:30.885Z,95.21
2022-10-11T03:53:30.822Z,95.10
2022-10-11T03:54:30.760Z,95.25
2022-10-11T03:55:30.702Z,95.25
2022-10-11T03:56:30.624Z,95.25
2022-10-11T03:57:30.567Z,95.25
2022-10-11T03:58:30.486Z,95.25
2022-10-11T03:59:30.454Z,95.25
2022-10-11T04:00:30.371Z,95.25
2022-10-11T04:01:30.419Z,95.15
2022-10-11T04:02:30.251Z,95.25
2022-10-11T04:03:30.182Z,95.46
2022-10-11T04:04:30.117Z,95.56
2022-10-11T04:05:30.029Z,95.56
2022-10-11T04:06:29.979Z,95.67
2022-10-11T04:07:29.916Z,95.67
2022-10-11T04:08:29.999Z,95.67
2022-10-11T04:09:29.796Z,95.46
2022-10-11T04:10:29.753Z,95.46
2022-10-11T04:11:29.655Z,95.56
2022-10-11T04:12:29.594Z,95.61
2022-10-11T04:13:29.517Z,95.61
2022-10-11T04:14:29.479Z,95.61
2022-10-11T04:15:29.401Z,95.71
2022-10-11T04:16:29.343Z,95.81
2022-10-11T04:17:29.259Z,95.81
2022-10-11T04:18:29.228Z,95.81
2022-10-11T04:19:29.129Z,96.02
2022-10-11T04:20:29.104Z,95.92
2022-10-11T04:21:29.023Z,95.81
2022-10-11T04:22:28.939Z,95.76
2022-10-11T04:23:28.874Z,95.76
2022-10-11T04:24:28.829Z,95.86
2022-10-11T04:25:28.762Z,95.86
2022-10-11T04:26:28.707Z,95.96
2022-10-11T04:27:28.619Z,95.96
2022-10-11T04:28:28.597Z,95.86
2022-10-11T04:29:32.375Z,96.01
2022-10-11T04:30:28.440Z,96.01
2022-10-11T04:31:28.360Z,96.11
2022-10-11T04:32:28.338Z,96.11
2022-10-11T04:33:28.226Z,96.21
2022-10-11T04:34:28.162Z,96.42
2022-10-11T04:35:28.115Z,96.42
2022-10-11T04:36:28.038Z,96.42
2022-10-11T04:37:27.988Z,96.62
2022-10-11T04:38:31.043Z,96.83
2022-10-11T04:39:27.844Z,96.94
2022-10-11T04:40:27.797Z,96.94
2022-10-11T04:41:27.731Z,96.94
2022-10-11T04:42:27.675Z,97.14
2022-10-11T04:43:27.619Z,97.34
2022-10-11T04:44:27.554Z,97.30
2022-10-11T04:45:27.479Z,97.30
2022-10-11T04:46:27.410Z,97.41
2022-10-11T04:47:27.343Z,97.30
2022-10-11T04:48:27.311Z,97.30
2022-10-11T04:49:27.216Z,97.20
2022-10-11T04:50:27.151Z,97.16
2022-10-11T04:51:27.116Z,97.05
2022-10-11T04:52:27.029Z,97.26
2022-10-11T04:53:26.944Z,97.26
2022-10-11T04:54:26.891Z,97.36
2022-10-11T04:55:26.817Z,97.47
2022-10-11T04:56:26.785Z,97.26
2022-10-11T04:57:26.687Z,97.26
2022-10-11T04:58:26.625Z,97.11
2022-10-11T04:59:26.572Z,97.21
2022-10-11T05:00:26.490Z,97.31
2022-10-11T05:01:26.440Z,97.21
2022-10-11T05:02:26.451Z,97.11
2022-10-11T05:03:26.329Z,97.01
2022-10-11T05:04:26.259Z,97.21
2022-10-11T05:05:26.170Z,97.21
2022-10-11T05:06:26.107Z,97.11
2022-10-11T05:07:26.074Z,97.06
2022-10-11T05:08:27.552Z,96.96
2022-10-11T05:09:25.923Z,96.75
2022-10-11T05:10:25.854Z,96.75
2022-10-11T05:11:25.743Z,96.75
2022-10-11T05:12:25.729Z,96.66
2022-10-11T05:13:25.621Z,96.55
2022-10-11T05:14:27.098Z,96.55
2022-10-11T05:15:25.489Z,96.45
2022-10-11T05:16:25.428Z,96.45
2022-10-11T05:17:25.364Z,96.24
2022-10-11T05:18:25.285Z,96.14
2022-10-11T05:19:25.213Z,96.03
2022-10-11T05:20:25.174Z,95.93
2022-10-11T05:21:25.102Z,95.93
2022-10-11T05:22:25.032Z,96.03
2022-10-11T05:23:25.073Z,96.14
2022-10-11T05:24:24.909Z,96.14
2022-10-11T05:25:24.840Z,96.14
2022-10-11T05:26:25.581Z,96.14
2022-10-11T05:27:24.707Z,96.09
2022-10-11T05:28:24.728Z,96.09
2022-10-11T05:29:24.586Z,96.09
2022-10-11T05:30:24.512Z,96.09
2022-10-11T05:31:24.444Z,96.09
2022-10-11T05:32:27.694Z,95.99
2022-10-11T05:33:24.323Z,96.09
2022-10-11T05:34:24.282Z,95.99
2022-10-11T05:35:24.205Z,96.09
2022-10-11T05:36:24.148Z,96.09
2022-10-11T05:37:24.066Z,96.20
2022-10-11T05:38:25.551Z,96.30
2022-10-11T05:39:23.936Z,96.30
2022-10-11T05:40:23.868Z,96.41
2022-10-11T05:41:23.822Z,96.30
2022-10-11T05:42:23.772Z,96.30
2022-10-11T05:43:23.673Z,96.41
2022-10-11T05:44:23.637Z,96.41
2022-10-11T05:45:23.544Z,96.30
2022-10-11T05:46:23.489Z,96.20
2022-10-11T05:47:23.420Z,96.09
2022-10-11T05:48:23.368Z,95.95
2022-10-11T05:49:23.304Z,95.95
2022-10-11T05:50:24.440Z,96.05
2022-10-11T05:51:23.193Z,96.15
2022-10-11T05:52:23.118Z,96.15
2022-10-11T05:53:23.083Z,96.15
2022-10-11T05:54:22.961Z,95.95
2022-10-11T05:55:22.899Z,95.95
2022-10-11T05:56:23.639Z,96.05
2022-10-11T05:57:22.791Z,96.05
2022-10-11T05:58:22.709Z,96.15
2022-10-11T05:59:22.641Z,96.15
2022-10-11T06:00:22.598Z,96.05
2022-10-11T06:01:22.595Z,95.95
2022-10-11T06:02:22.514Z,95.95
2022-10-11T06:03:22.393Z,95.95
2022-10-11T06:04:22.342Z,95.64
2022-10-11T06:05:22.304Z,94.71
2022-10-11T06:06:22.192Z,93.58
2022-10-11T06:07:22.149Z,92.14
2022-10-11T06:08:22.865Z,91.83
2022-10-11T06:09:22.026Z,91.42
2022-10-11T06:10:22.059Z,91.52
2022-10-11T06:11:21.879Z,91.93
2022-10-11T06:12:21.837Z,91.83
2022-10-11T06:13:21.756Z,91.72
2022-10-11T06:14:21.735Z,91.52
2022-10-11T06:15:21.621Z,91.05
2022-10-11T06:16:21.575Z,91.36
2022-10-11T06:17:21.522Z,91.87
2022-10-11T06:18:21.428Z,92.29
2022-10-11T06:19:21.405Z,92.29
2022-10-11T06:20:21.322Z,92.29
2022-10-11T06:21:21.265Z,92.69
2022-10-11T06:22:21.194Z,92.59
2022-10-11T06:23:21.118Z,92.29
2022-10-11T06:24:21.036Z,92.08
2022-10-11T06:25:20.986Z,92.22
2022-10-11T06:26:21.721Z,92.43
2022-10-11T06:27:20.857Z,92.74
2022-10-11T06:28:20.867Z,92.90
2022-10-11T06:29:20.738Z,92.69
2022-10-11T06:30:20.720Z,92.59
2022-10-11T06:31:20.638Z,92.69
2022-10-11T06:32:20.551Z,92.29
2022-10-11T06:33:20.461Z,91.97
2022-10-11T06:34:20.396Z,91.97
2022-10-11T06:35:20.341Z,92.29
2022-10-11T06:36:20.286Z,92.29
2022-10-11T06:37:20.207Z,92.18
2022-10-11T06:38:20.198Z,92.38
2022-10-11T06:39:20.080Z,92.38
2022-10-11T06:40:20.032Z,92.38
2022-10-11T06:41:19.953Z,92.29
2022-10-11T06:42:19.882Z,92.08
2022-10-11T06:43:19.836Z,92.38
2022-10-11T06:44:22.887Z,92.29
2022-10-11T06:45:19.701Z,91.83
2022-10-11T06:46:19.643Z,91.52
2022-10-11T06:47:19.562Z,91.83
2022-10-11T06:48:19.507Z,92.14
2022-10-11T06:49:22.974Z,91.93
2022-10-11T06:50:34.850Z,91.83
2022-10-11T06:51:19.314Z,91.42
2022-10-11T06:52:19.250Z,91.62
2022-10-11T06:53:19.188Z,91.52
2022-10-11T06:54:19.175Z,91.83
2022-10-11T06:55:19.049Z,92.14
2022-10-11T06:56:20.101Z,92.14
2022-10-11T06:57:18.935Z,91.83
2022-10-11T06:58:18.863Z,91.68
2022-10-11T06:59:18.788Z,91.06
2022-10-11T07:00:18.728Z,91.38
2022-10-11T07:01:18.751Z,91.47
2022-10-11T07:02:18.612Z,91.27
2022-10-11T07:03:18.531Z,91.27
2022-10-11T07:04:18.473Z,91.17
2022-10-11T07:05:18.409Z,91.38
2022-10-11T07:06:18.331Z,91.38
2022-10-11T07:07:18.300Z,91.58
2022-10-11T07:08:19.776Z,91.58
2022-10-11T07:09:18.160Z,91.47
2022-10-11T07:10:18.104Z,91.47
2022-10-11T07:11:18.044Z,91.38
2022-10-11T07:12:17.950Z,91.02
2022-10-11T07:13:17.927Z,90.81
2022-10-11T07:14:19.386Z,91.02
2022-10-11T07:15:17.767Z,90.81
2022-10-11T07:16:17.692Z,91.02
2022-10-11T07:17:17.655Z,90.81
2022-10-11T07:18:17.591Z,90.72
2022-10-11T07:19:17.510Z,90.72
2022-10-11T07:20:17.482Z,90.41
2022-10-11T07:21:17.379Z,90.61
2022-10-11T07:22:17.314Z,90.06
2022-10-11T07:23:17.274Z,90.06
2022-10-11T07:24:17.198Z,90.47
2022-10-11T07:25:17.136Z,90.47
2022-10-11T07:26:20.113Z,90.16
2022-10-11T07:27:17.010Z,90.26
2022-10-11T07:28:17.049Z,90.57
2022-10-11T07:29:16.873Z,90.26
2022-10-11T07:30:16.800Z,90.26
2022-10-11T07:31:16.814Z,90.12
2022-10-11T07:32:18.224Z,89.70
2022-10-11T07:33:16.638Z,89.60
2022-10-11T07:34:16.553Z,89.91
2022-10-11T07:35:16.477Z,89.81
2022-10-11T07:36:16.466Z,89.81
2022-10-11T07:37:16.375Z,89.50
2022-10-11T07:38:16.322Z,89.50
2022-10-11T07:39:16.524Z,89.66
2022-10-11T07:40:16.180Z,89.81
2022-10-11T07:41:16.102Z,89.46
2022-10-11T07:42:16.036Z,89.36
2022-10-11T07:43:15.980Z,88.70
2022-10-11T07:44:15.920Z,89.42
2022-10-11T07:45:15.932Z,88.45
2022-10-11T07:46:15.781Z,88.04
2022-10-11T07:47:15.715Z,88.45
2022-10-11T07:48:15.641Z,88.24
2022-10-11T07:49:15.603Z,87.94
2022-10-11T07:50:17.072Z,87.49
2022-10-11T07:51:15.477Z,87.70
2022-10-11T07:52:15.402Z,87.59
2022-10-11T07:53:15.333Z,87.38
2022-10-11T07:54:15.274Z,87.70
2022-10-11T07:55:15.187Z,87.28
2022-10-11T07:56:15.154Z,86.73
2022-10-11T07:57:15.071Z,87.24
2022-10-11T07:58:15.019Z,86.83
2022-10-11T07:59:14.939Z,86.52
2022-10-11T08:00:14.891Z,86.63
2022-10-11T08:01:14.934Z,86.32
2022-10-11T08:02:16.326Z,86.38
2022-10-11T08:03:14.729Z,85.97
2022-10-11T08:04:14.656Z,86.18
2022-10-11T08:05:14.582Z,86.38
2022-10-11T08:06:14.542Z,86.22
2022-10-11T08:07:14.437Z,86.83
2022-10-11T08:08:18.154Z,86.73
2022-10-11T08:09:14.314Z,86.22
2022-10-11T08:10:14.265Z,86.11
2022-10-11T08:11:14.171Z,86.11
2022-10-11T08:12:14.175Z,86.11
2022-10-11T08:13:14.056Z,86.01
2022-10-11T08:14:14.784Z,86.11
2022-10-11T08:15:13.938Z,85.71
2022-10-11T08:16:13.874Z,86.01
2022-10-11T08:17:13.798Z,86.11
2022-10-11T08:18:13.752Z,86.01
2022-10-11T08:19:13.786Z,85.91
2022-10-11T08:20:13.640Z,86.11
2022-10-11T08:21:13.538Z,86.42
2022-10-11T08:22:13.499Z,86.01
2022-10-11T08:23:13.434Z,86.32
2022-10-11T08:24:13.356Z,86.11
2022-10-11T08:25:13.279Z,86.83
2022-10-11T08:26:13.247Z,86.42
2022-10-11T08:27:13.148Z,86.11
2022-10-11T08:28:13.148Z,86.01
2022-10-11T08:29:13.049Z,86.57
2022-10-11T08:30:12.954Z,86.77
2022-10-11T08:31:12.894Z,86.57
2022-10-11T08:32:12.923Z,86.77
2022-10-11T08:33:12.799Z,86.42
2022-10-11T08:34:12.736Z,86.73
2022-10-11T08:35:12.663Z,87.14
2022-10-11T08:36:12.623Z,87.76
2022-10-11T08:37:12.508Z,86.42
2022-10-11T08:38:13.661Z,86.11
2022-10-11T08:39:12.401Z,86.01
2022-10-11T08:40:12.323Z,85.77
2022-10-11T08:41:12.267Z,85.87
2022-10-11T08:42:12.217Z,85.77
2022-10-11T08:43:12.129Z,85.66
2022-10-11T08:44:12.428Z,85.31
2022-10-11T08:45:12.414Z,84.91
2022-10-11T08:46:11.931Z,84.09
2022-10-11T08:47:11.879Z,85.22
2022-10-11T08:48:11.828Z,85.42
2022-10-11T08:49:11.749Z,85.31
2022-10-11T08:50:11.692Z,84.56
2022-10-11T08:51:11.624Z,83.03
2022-10-11T08:52:11.574Z,83.23
2022-10-11T08:53:11.505Z,84.05
2022-10-11T08:54:11.515Z,83.23
2022-10-11T08:55:11.373Z,82.82
2022-10-11T08:56:11.375Z,82.00
2022-10-11T08:57:11.266Z,82.51
2022-10-11T08:58:11.203Z,83.19
2022-10-11T08:59:11.117Z,82.98
2022-10-11T09:00:11.036Z,83.50
2022-10-11T09:01:11.054Z,83.50
2022-10-11T09:02:12.147Z,81.86
2022-10-11T09:03:10.848Z,81.10
2022-10-11T09:04:10.865Z,81.10
2022-10-11T09:05:10.750Z,80.49
2022-10-11T09:06:10.666Z,81.21
2022-10-11T09:07:10.610Z,80.80
2022-10-11T09:08:11.604Z,81.68
2022-10-11T09:09:10.487Z,81.58
2022-10-11T09:10:10.398Z,81.38
2022-10-11T09:11:10.346Z,79.84
2022-10-11T09:12:10.287Z,80.52
2022-10-11T09:13:10.201Z,79.50
2022-10-11T09:14:10.169Z,79.60
2022-10-11T09:15:10.076Z,79.80
2022-10-11T09:16:10.032Z,80.01
2022-10-11T09:17:10.004Z,79.29
2022-10-11T09:18:10.021Z,78.27
2022-10-11T09:19:09.819Z,78.48
2022-10-11T09:20:09.831Z,78.78
2022-10-11T09:21:09.706Z,78.99
2022-10-11T09:22:10.702Z,78.58
2022-10-11T09:23:09.581Z,78.88
2022-10-11T09:24:10.190Z,79.23
2022-10-11T09:25:09.437Z,78.38
2022-10-11T09:26:09.642Z,78.61
2022-10-11T09:27:09.321Z,78.00
2022-10-11T09:28:09.295Z,79.02
2022-10-11T09:29:09.278Z,79.13
2022-10-11T09:30:09.133Z,79.33
2022-10-11T09:31:09.060Z,78.52
2022-10-11T09:32:12.186Z,79.43
2022-10-11T09:33:08.932Z,79.74
2022-10-11T09:34:08.889Z,78.72
2022-10-11T09:35:08.797Z,78.34
2022-10-11T09:36:08.967Z,79.06
2022-10-11T09:37:08.695Z,79.16
2022-10-11T09:38:08.642Z,79.68
2022-10-11T09:39:08.546Z,80.08
2022-10-11T09:40:08.514Z,79.68
2022-10-11T09:41:08.420Z,79.23
2022-10-11T09:42:08.367Z,79.43
2022-10-11T09:43:08.299Z,78.86
2022-10-11T09:44:08.260Z,79.27
2022-10-11T09:45:08.163Z,79.78
2022-10-11T09:46:08.446Z,79.57
2022-10-11T09:47:08.064Z,79.43
2022-10-11T09:48:07.967Z,78.92
2022-10-11T09:49:07.927Z,78.55
2022-10-11T09:50:08.144Z,79.23
2022-10-11T09:51:07.787Z,79.43
2022-10-11T09:52:07.723Z,78.72
2022-10-11T09:53:07.671Z,78.78
2022-10-11T09:54:07.628Z,78.38
2022-10-11T09:55:07.532Z,78.52
2022-10-11T09:56:07.951Z,78.20
2022-10-11T09:57:07.403Z,78.61
2022-10-11T09:58:07.345Z,78.72
2022-10-11T09:59:07.292Z,78.41
2022-10-11T10:00:07.202Z,79.13
2022-10-11T10:01:08.355Z,78.99
2022-10-11T10:02:07.937Z,79.29
2022-10-11T10:03:07.027Z,79.29
2022-10-11T10:04:06.946Z,78.88
2022-10-11T10:05:06.900Z,77.97
2022-10-11T10:06:07.537Z,77.76
2022-10-11T10:07:06.756Z,77.56
2022-10-11T10:08:06.704Z,77.97
2022-10-11T10:09:06.652Z,78.13
2022-10-11T10:10:06.565Z,78.34
2022-10-11T10:11:06.494Z,77.93
2022-10-11T10:12:06.451Z,77.59
2022-10-11T10:13:06.387Z,76.87
2022-10-11T10:14:06.361Z,76.12
2022-10-11T10:15:06.246Z,75.31
2022-10-11T10:16:06.586Z,75.24
2022-10-11T10:17:06.131Z,75.85
2022-10-11T10:18:06.050Z,76.02
2022-10-11T10:19:06.143Z,75.82
2022-10-11T10:20:05.942Z,75.51
2022-10-11T10:21:05.934Z,75.41
2022-10-11T10:22:05.809Z,75.20
2022-10-11T10:23:05.736Z,74.55
2022-10-11T10:24:05.692Z,74.35
2022-10-11T10:25:05.599Z,73.94
2022-10-11T10:26:06.027Z,74.05
2022-10-11T10:27:05.495Z,74.25
2022-10-11T10:28:05.425Z,73.94
2022-10-11T10:29:05.371Z,73.98
2022-10-11T10:30:05.305Z,74.79
2022-10-11T10:31:05.261Z,74.38
2022-10-11T10:32:20.499Z,74.76
2022-10-11T10:33:05.139Z,73.60
2022-10-11T10:34:05.035Z,73.26
2022-10-11T10:35:04.977Z,73.47
2022-10-11T10:36:05.132Z,72.11
2022-10-11T10:37:04.837Z,71.56
2022-10-11T10:38:05.597Z,70.41
2022-10-11T10:39:04.736Z,70.51
2022-10-11T10:40:04.673Z,70.01
2022-10-11T10:41:04.599Z,70.01
2022-10-11T10:42:04.545Z,69.49
2022-10-11T10:43:04.467Z,69.84
2022-10-11T10:44:05.616Z,70.45
2022-10-11T10:45:07.328Z,70.10
2022-10-11T10:46:04.620Z,70.28
2022-10-11T10:47:04.215Z,69.26
2022-10-11T10:48:04.152Z,68.96
2022-10-11T10:49:41.530Z,68.75
2022-10-11T10:50:04.036Z,68.85
2022-10-11T10:51:08.344Z,69.02
2022-10-11T10:52:03.908Z,69.84
2022-10-11T10:53:04.610Z,70.10
2022-10-11T10:54:03.780Z,69.19
2022-10-11T10:55:03.704Z,70.04
2022-10-11T10:56:04.063Z,70.14
2022-10-11T10:57:03.607Z,70.68
2022-10-11T10:58:03.520Z,70.89
2022-10-11T10:59:03.442Z,71.09
2022-10-11T11:00:03.380Z,69.97
2022-10-11T11:01:03.321Z,70.68
2022-10-11T11:02:21.409Z,70.58
2022-10-11T11:03:03.200Z,70.78
2022-10-11T11:04:03.131Z,70.78
2022-10-11T11:05:03.121Z,70.28
2022-10-11T11:06:03.447Z,70.28
2022-10-11T11:07:03.699Z,70.04
2022-10-11T11:08:08.156Z,70.14
2022-10-11T11:09:07.107Z,69.93
2022-10-11T11:10:03.500Z,69.84
2022-10-11T11:11:03.540Z,69.70
2022-10-11T11:12:02.624Z,69.80
2022-10-11T11:13:02.572Z,69.60
2022-10-11T11:14:02.509Z,68.27
2022-10-11T11:15:02.588Z,68.88
2022-10-11T11:16:02.718Z,68.88
2022-10-11T11:17:02.310Z,68.41
2022-10-11T11:18:02.247Z,69.23
2022-10-11T11:19:02.193Z,70.45
2022-10-11T11:20:03.107Z,70.14
2022-10-11T11:21:02.088Z,68.92
2022-10-11T11:22:01.989Z,69.46
2022-10-11T11:23:01.923Z,70.78
2022-10-11T11:24:01.867Z,70.58
2022-10-11T11:25:01.787Z,69.46
2022-10-11T11:26:01.818Z,70.28
2022-10-11T11:27:01.712Z,70.07
2022-10-11T11:28:01.624Z,70.38
2022-10-11T11:29:01.526Z,69.43
2022-10-11T11:30:01.669Z,69.12
2022-10-11T11:31:01.404Z,69.63
2022-10-11T11:32:03.633Z,68.71
2022-10-11T11:33:01.287Z,69.02
2022-10-11T11:34:01.228Z,69.43
2022-10-11T11:35:01.170Z,69.63
2022-10-11T11:36:01.126Z,69.15
2022-10-11T11:37:01.059Z,69.56
2022-10-11T11:38:06.100Z,69.76
2022-10-11T11:39:00.899Z,69.26
2022-10-11T11:40:00.864Z,69.87
2022-10-11T11:41:00.798Z,69.73
2022-10-11T11:42:00.713Z,70.04
2022-10-11T11:43:01.599Z,69.43
2022-10-11T11:44:02.100Z,69.32
2022-10-11T11:45:00.531Z,69.32
2022-10-11T11:46:00.470Z,69.12
2022-10-11T11:47:00.426Z,68.92
2022-10-11T11:48:00.353Z,69.40
2022-10-11T11:49:00.286Z,69.49
2022-10-11T11:50:00.337Z,69.19
2022-10-11T11:51:00.151Z,68.96
2022-10-11T11:52:00.086Z,69.06
2022-10-11T11:53:00.026Z,69.36
2022-10-11T11:53:59.945Z,67.94
2022-10-11T11:55:03.787Z,68.65
2022-10-11T11:56:01.029Z,67.40
2022-10-11T11:56:59.745Z,67.80
2022-10-11T11:58:03.301Z,67.19
2022-10-11T11:58:59.637Z,67.50
2022-10-11T11:59:59.565Z,67.80
2022-10-11T12:00:59.511Z,65.97
2022-10-11T12:01:59.492Z,67.19
2022-10-11T12:02:59.364Z,66.86
2022-10-11T12:04:00.100Z,64.86
2022-10-11T12:04:59.243Z,64.35
2022-10-11T12:05:59.197Z,64.35
2022-10-11T12:07:15.342Z,63.77
2022-10-11T12:07:59.154Z,64.48
2022-10-11T12:08:59.369Z,64.79
2022-10-11T12:09:58.934Z,64.99
2022-10-11T12:10:58.875Z,65.39
2022-10-11T12:11:58.844Z,65.30
2022-10-11T12:12:58.743Z,65.19
2022-10-11T12:13:59.995Z,64.76
2022-10-11T12:14:58.631Z,64.45
2022-10-11T12:15:58.576Z,64.86
2022-10-11T12:16:58.515Z,64.04
2022-10-11T12:18:00.632Z,63.94
2022-10-11T12:18:58.366Z,64.25
2022-10-11T12:19:58.307Z,63.64
2022-10-11T12:20:58.262Z,63.67
2022-10-11T12:21:58.185Z,63.46
2022-10-11T12:22:58.122Z,64.18
2022-10-11T12:23:58.065Z,64.18
2022-10-11T12:24:58.001Z,64.18
2022-10-11T12:25:57.924Z,64.15
2022-10-11T12:26:57.843Z,63.33
2022-10-11T12:27:57.863Z,63.43
2022-10-11T12:28:57.748Z,63.64
2022-10-11T12:29:57.659Z,63.43
2022-10-11T12:30:57.597Z,64.04
2022-10-11T12:32:00.892Z,65.47
2022-10-11T12:32:57.499Z,63.84
2022-10-11T12:33:57.396Z,64.28
2022-10-11T12:34:57.357Z,64.28
2022-10-11T12:35:57.322Z,65.36
2022-10-11T12:36:57.307Z,63.43
2022-10-11T12:37:57.173Z,63.23
2022-10-11T12:38:57.099Z,63.74
2022-10-11T12:39:57.035Z,63.36
2022-10-11T12:40:56.977Z,63.46
2022-10-11T12:41:56.896Z,63.77
2022-10-11T12:42:56.848Z,63.54
2022-10-11T12:43:56.774Z,63.02
2022-10-11T12:44:56.695Z,63.43
2022-10-11T12:45:56.676Z,62.52
2022-10-11T12:46:56.588Z,62.11
2022-10-11T12:47:56.548Z,62.14
2022-10-11T12:48:56.469Z,62.35
2022-10-11T12:49:56.397Z,63.57
2022-10-11T12:50:59.616Z,64.99
2022-10-11T12:51:56.274Z,63.87